Latest Coastal Weather Observations for Gold Coast Seaway

IDQ60701

Issued at 8:32 am EST Monday 29 August 2016 (issued every 10 minutes, with the page automatically refreshed every 10 minutes)

About coastal observations | Map of coastal stations | Coastal observations for QLD | Marine services | Other Formats
Station Details ID: 040764 Name: GOLD COAST SEAWAY Lat: -27.94 Lon: 153.43 Height: 2.98 m
Data from the previous 72 hours. | See also: Recent months at Gold Coast Seaway
Date/Time
EST
Temp
°C
Wind Pressure Rain since
9am
mm
Weather Cloud Vis
km
Sea
Height
m
Swell
Dir  Spd
kts
Gust
kts
hPa Trend Height
m
Period
s
Dir
29/08:30am 18.8 WNW 5 6 1025.7 - 0.0 - - - - - - -
29/08:00am 16.9 WNW 5 6 1025.4 - 0.0 - - - - - - -
29/07:30am 15.7 W 6 7 1025.3 - 0.0 - - - - - - -
29/07:00am 14.8 W 6 7 1024.9 - 0.0 - - - - - - -
29/06:30am 13.6 WSW 5 7 1024.4 - 0.0 - - - - - - -
29/06:00am 13.3 WSW 7 8 1023.9 - 0.0 - - - - - - -
29/05:30am 13.2 WSW 6 7 1023.5 - 0.0 - - - - - - -
29/05:00am 13.3 W 5 6 1023.2 - 0.0 - - - - - - -
29/04:30am 13.2 W 5 7 1022.9 - 0.0 - - - - - - -
29/04:00am 13.2 WNW 6 7 1022.9 - 0.0 - - - - - - -
29/03:30am 13.2 W 5 6 1022.9 - 0.0 - - - - - - -
29/03:00am 13.6 WSW 6 8 1023.0 - 0.0 - - - - - - -
29/02:30am 13.7 WSW 6 7 1023.0 - 0.0 - - - - - - -
29/02:00am 13.8 WSW 7 7 1023.2 - 0.0 - - - - - - -
29/01:30am 14.2 W 5 6 1023.3 - 0.0 - - - - - - -
29/01:00am 13.8 W 7 8 1023.4 - 0.0 - - - - - - -
29/12:30am 14.2 WSW 6 7 1023.4 - 0.0 - - - - - - -
29/12:00am 13.9 WSW 6 7 1023.2 - 0.0 - - - - - - -
 
Date/Time
EST
Temp
°C
Wind Pressure Rain since
9am
mm
Weather Cloud Vis
km
Sea
Height
m
Swell
Dir  Spd
kts
Gust
kts
hPa Trend Height
m
Period
s
Dir
28/11:30pm 14.1 WSW 5 6 1023.0 - 0.0 - - - - - - -
28/11:00pm 14.1 SW 6 8 1023.1 - 0.0 - - - - - - -
28/10:30pm 14.6 SW 5 7 1023.2 - 0.0 - - - - - - -
28/10:00pm 14.6 SW 6 7 1023.3 - 0.0 - - - - - - -
28/09:30pm 15.1 SW 6 8 1023.2 - 0.0 - - - - - - -
28/09:00pm 15.6 S 3 7 1023.3 - 0.0 - - - - - - -
28/08:30pm 16.5 NE 5 6 1022.9 - 0.0 - - - - - - -
28/08:00pm 17.5 ENE 6 7 1022.7 - 0.0 - - - - - - -
28/07:30pm 17.5 ENE 5 7 1022.5 - 0.0 - - - - - - -
28/07:00pm 18.0 E 6 8 1022.4 - 0.0 - - - - - - -
28/06:30pm 18.2 ENE 6 7 1022.2 - 0.0 - - - - - - -
28/06:00pm 18.3 E 7 8 1022.0 - 0.0 - - - - - - -
28/05:30pm 18.5 E 6 8 1021.8 - 0.0 - - - - - - -
28/05:00pm 19.2 E 7 8 1021.5 - 0.0 - - - - - - -
28/04:30pm 19.8 E 7 9 1021.1 - 0.0 - - - - - - -
28/04:00pm 20.1 ENE 7 9 1020.8 - 0.0 - - - - - - -
28/03:30pm 20.5 E 7 9 1021.0 - 0.0 - - - - - - -
28/03:00pm 21.0 E 8 9 1021.1 - 0.0 - - - - - - -
28/02:30pm 21.5 E 9 11 1021.0 - 0.0 - - - - - - -
28/02:00pm 21.4 ESE 10 12 1021.0 - 0.0 - - - - - - -
28/01:30pm 21.8 ESE 8 10 1021.2 - 0.0 - - - - - - -
28/01:00pm 21.6 ESE 10 12 1021.6 - 0.0 - - - - - - -
28/12:30pm 22.1 ESE 10 11 1022.1 - 0.0 - - - - - - -
28/12:00pm 22.2 ESE 10 13 1022.6 - 0.0 - - - - - - -
28/11:30am 22.2 SE 8 10 1023.2 - 0.0 - - - - - - -
28/11:00am 21.9 SSE 11 14 1023.4 - 0.0 - - - - - - -
28/10:30am 21.6 SSE 12 14 1023.5 - 0.0 - - - - - - -
28/10:00am 21.1 SSE 12 16 1023.5 - 0.0 - - - - - - -
28/09:30am 20.5 SSE 12 16 1023.5 - 0.0 - - - - - - -
28/09:00am 19.2 SSW 8 11 1023.7 - 0.0 - - - - - - -
28/08:30am 18.2 SSW 7 10 1023.6 - 0.0 - - - - - - -
28/08:00am 16.7 SW 6 9 1023.3 - 0.0 - - - - - - -
28/07:30am 15.4 SW 6 8 1022.9 - 0.0 - - - - - - -
28/07:00am 14.3 SW 6 8 1022.6 - 0.0 - - - - - - -
28/06:30am 13.0 WSW 6 8 1022.1 - 0.0 - - - - - - -
28/06:00am 12.4 W 7 8 1022.1 - 0.0 - - - - - - -
28/05:30am 11.2 W 5 7 1021.9 - 0.0 - - - - - - -
28/05:00am 11.7 W 6 7 1021.4 - 0.0 - - - - - - -
28/04:30am 11.3 WSW 5 6 1021.3 - 0.0 - - - - - - -
28/04:00am 11.3 SW 5 6 1021.2 - 0.0 - - - - - - -
28/03:30am 13.1 SW 6 7 1021.0 - 0.0 - - - - - - -
28/03:00am 12.8 SW 5 8 1020.8 - 0.0 - - - - - - -
28/02:30am 11.6 SSW 7 8 1021.0 - 0.0 - - - - - - -
28/02:00am 12.6 SW 5 7 1021.5 - 0.0 - - - - - - -
28/01:30am 13.0 W 6 7 1021.6 - 0.0 - - - - - - -
28/01:00am 12.8 W 6 7 1021.2 - 0.0 - - - - - - -
28/12:30am 13.7 W 7 8 1021.4 - 0.0 - - - - - - -
28/12:00am 13.4 WSW 6 7 1021.6 - 0.0 - - - - - - -
 
Date/Time
EST
Temp
°C
Wind Pressure Rain since
9am
mm
Weather Cloud Vis
km
Sea
Height
m
Swell
Dir  Spd
kts
Gust
kts
hPa Trend Height
m
Period
s
Dir
27/11:30pm 13.3 WSW 6 8 1021.6 - 0.0 - - - - - - -
27/11:00pm 13.2 WSW 6 7 1021.7 - 0.0 - - - - - - -
27/10:30pm 12.5 WSW 5 6 1021.4 - 0.0 - - - - - - -
27/10:00pm 13.6 WSW 5 6 1021.4 - 0.0 - - - - - - -
27/09:30pm 14.0 SW 5 7 1021.5 - 0.0 - - - - - - -
27/09:00pm 13.7 SSW 7 8 1021.4 - 0.0 - - - - - - -
27/08:30pm 14.0 S 8 9 1021.1 - 0.0 - - - - - - -
27/08:00pm 15.1 S 9 11 1020.9 - 0.0 - - - - - - -
27/07:30pm 15.9 S 15 18 1021.0 - 0.0 - - - - - - -
27/07:00pm 16.5 SSE 17 20 1020.6 - 0.0 - - - - - - -
27/06:30pm 16.0 S 10 12 1020.0 - 0.0 - - - - - - -
27/06:00pm 17.0 S 11 15 1019.4 - 0.0 - - - - - - -
27/05:30pm 17.5 S 11 15 1018.8 - 0.0 - - - - - - -
27/05:00pm 19.0 S 8 13 1018.5 - 0.0 - - - - - - -
27/04:30pm 18.9 S 9 14 1018.1 - 0.0 - - - - - - -
27/04:00pm 19.4 SSW 7 10 1017.8 - 0.0 - - - - - - -
27/03:30pm 20.8 S 12 17 1017.5 - 0.0 - - - - - - -
27/03:00pm 20.1 SE 11 14 1017.5 - 0.0 - - - - - - -
27/02:30pm 21.1 ESE 8 11 1017.6 - 0.0 - - - - - - -
27/02:00pm 21.3 SE 9 11 1017.8 - 0.0 - - - - - - -
27/01:30pm 21.2 SE 10 14 1017.8 - 0.0 - - - - - - -
27/01:00pm 21.3 SE 9 12 1018.0 - 0.0 - - - - - - -
27/12:30pm 20.9 ESE 6 9 1018.3 - 0.0 - - - - - - -
27/12:00pm 19.8 SE 7 10 1018.6 - 0.0 - - - - - - -
27/11:30am 20.0 SE 7 9 1018.8 - 0.0 - - - - - - -
27/11:00am 19.5 ESE 3 9 1019.3 - 0.0 - - - - - - -
27/10:30am 18.8 N 3 7 1019.5 - 0.0 - - - - - - -
27/10:00am 17.4 S 7 12 1019.7 - 0.0 - - - - - - -
27/09:30am 17.4 SSE 8 10 1019.7 - 0.0 - - - - - - -
27/09:00am 16.4 S 4 7 1019.7 - 1.8 - - - - - - -
27/08:30am 15.1 WNW 4 6 1019.6 - 1.8 - - - - - - -
27/08:00am 14.0 WNW 5 7 1019.3 - 1.8 - - - - - - -
27/07:30am 13.0 WNW 6 7 1019.1 - 1.8 - - - - - - -
27/07:00am 11.9 W 5 7 1018.9 - 1.8 - - - - - - -
27/06:30am 10.5 W 5 6 1018.8 - 1.8 - - - - - - -
27/06:00am 11.0 SW 5 7 1018.6 - 1.8 - - - - - - -
27/05:30am 11.7 W 6 7 1018.4 - 1.8 - - - - - - -
27/05:00am 11.9 WNW 5 7 1018.1 - 1.8 - - - - - - -
27/04:30am 12.4 WNW 6 8 1017.6 - 1.8 - - - - - - -
27/04:00am 11.7 SSW 5 7 1017.5 - 1.8 - - - - - - -
27/03:30am 11.5 SSW 6 7 1017.3 - 1.8 - - - - - - -
27/03:00am 12.2 S 5 6 1017.3 - 1.8 - - - - - - -
27/02:30am 12.5 SW 4 6 1017.2 - 1.8 - - - - - - -
27/02:00am 12.5 W 5 6 1017.2 - 1.8 - - - - - - -
27/01:30am 12.7 W 5 8 1017.2 - 1.8 - - - - - - -
27/01:00am 12.6 SSW 5 6 1017.3 - 1.6 - - - - - - -
27/12:30am 13.1 SW 7 10 1017.5 - 1.0 - - - - - - -
27/12:00am 13.1 S 9 15 1017.5 - 0.8 Recent precip. - - - - - -
 
Date/Time
EST
Temp
°C
Wind Pressure Rain since
9am
mm
Weather Cloud Vis
km
Sea
Height
m
Swell
Dir  Spd
kts
Gust
kts
hPa Trend Height
m
Period
s
Dir
26/11:30pm 13.9 NW 3 6 1017.4 - 0.4 - - - - - - -
26/11:00pm 15.0 NW 3 5 1017.0 - 0.0 - - - - - - -
26/10:30pm 15.1 SW 4 6 1016.7 - 0.0 - - - - - - -
26/10:00pm 15.1 SW 5 7 1016.7 - 0.0 - - - - - - -
26/09:30pm 15.1 WSW 5 6 1016.6 - 0.0 - - - - - - -
26/09:00pm 15.0 SSW 5 9 1016.4 - 0.0 - - - - - - -
26/08:30pm 15.6 SSW 6 8 1016.4 - 0.0 - - - - - - -
26/08:00pm 15.7 S 7 12 1016.4 - 0.0 - - - - - - -
26/07:30pm 15.6 SSW 7 9 1016.3 - 0.0 - - - - - - -
26/07:00pm 15.7 S 8 11 1016.1 - 0.0 - - - - - - -
26/06:30pm 15.8 S 11 14 1015.5 - 0.0 - - - - - - -
26/06:00pm 15.8 S 11 15 1015.5 - 0.0 - - - - - - -
26/05:30pm 16.6 SSE 10 13 1015.1 - 0.0 - - - - - - -
26/05:00pm 17.4 SE 7 10 1014.9 - 0.0 - - - - - - -
26/04:30pm 18.4 ESE 8 11 1014.6 - 0.0 - - - - - - -
26/04:00pm 19.2 ESE 9 10 1014.4 - 0.0 - - - - - - -
26/03:30pm 19.3 ESE 9 11 1014.3 - 0.0 - - - - - - -
26/03:00pm 19.5 ESE 8 10 1014.3 - 0.0 - - - - - - -
26/02:30pm 18.8 ESE 8 10 1014.4 - 0.0 - - - - - - -
26/02:00pm 19.6 E 9 10 1014.5 - 0.0 - - - - - - -
26/01:30pm 19.6 E 10 12 1014.5 - 0.0 - - - - - - -
26/01:00pm 19.4 E 10 12 1014.6 - 0.0 - - - - - - -
26/12:30pm 19.8 ESE 9 12 1015.0 - 0.0 - - - - - - -
26/12:00pm 20.0 ESE 8 11 1015.5 - 0.0 - - - - - - -
26/11:30am 19.1 ESE 8 10 1015.8 - 0.0 - - - - - - -
26/11:00am 18.8 E 7 8 1016.1 - 0.0 - - - - - - -
26/10:30am 18.9 ENE 5 6 1016.5 - 0.0 - - - - - - -
26/10:00am 18.2 NW 1 4 1016.8 - 0.0 - - - - - - -
26/09:30am 17.3 NW 5 6 1017.1 - 0.0 - - - - - - -
26/09:00am 16.3 WNW 6 7 1017.2 - 0.2 - - - - - - -

Other Formats:

Comma delimited format used in spreadsheet applications
http://www.bom.gov.au/fwo/IDQ60701/IDQ60701.94580.axf

JavaScript Object Notation format (JSON) in row-major order
http://www.bom.gov.au/fwo/IDQ60701/IDQ60701.94580.json